createdAt,value
2023-04-30T00:01:25.453Z,0.10
2023-04-30T00:03:52.473Z,0.10
2023-04-30T00:06:19.198Z,0.10
2023-04-30T00:08:45.886Z,0.10
2023-04-30T00:11:12.668Z,0.10
2023-04-30T00:13:39.319Z,0.10
2023-04-30T00:16:06.103Z,0.10
2023-04-30T00:18:32.926Z,0.10
2023-04-30T00:20:59.596Z,0.10
2023-04-30T00:23:26.235Z,0.10
2023-04-30T00:25:52.981Z,0.05
2023-04-30T00:28:19.672Z,0.10
2023-04-30T00:30:46.695Z,0.10
2023-04-30T00:33:13.440Z,0.10
2023-04-30T00:35:40.766Z,0.10
2023-04-30T00:38:07.488Z,0.10
2023-04-30T00:40:36.058Z,0.10
2023-04-30T00:43:02.766Z,0.10
2023-04-30T00:45:30.816Z,0.10
2023-04-30T00:47:57.731Z,0.10
2023-04-30T00:50:25.015Z,0.10
2023-04-30T00:52:51.947Z,0.10
2023-04-30T00:55:18.884Z,0.10
2023-04-30T00:57:46.811Z,0.10
2023-04-30T01:00:14.320Z,0.10
2023-04-30T01:02:41.506Z,0.10
2023-04-30T01:05:08.614Z,0.10
2023-04-30T01:07:38.920Z,0.10
2023-04-30T01:10:07.166Z,0.10
2023-04-30T01:13:04.516Z,0.10
2023-04-30T01:15:54.748Z,0.10
2023-04-30T01:18:35.502Z,0.10
2023-04-30T01:21:05.733Z,0.10
2023-04-30T01:23:32.397Z,0.10
2023-04-30T01:26:11.750Z,0.05
2023-04-30T01:28:42.415Z,0.10
2023-04-30T01:31:18.166Z,0.10
2023-04-30T01:33:45.254Z,0.10
2023-04-30T01:36:40.918Z,0.10
2023-04-30T01:39:32.005Z,0.10
2023-04-30T01:42:14.922Z,0.10
2023-04-30T01:45:03.213Z,0.10
2023-04-30T01:47:39.462Z,0.10
2023-04-30T01:50:18.426Z,0.10
2023-04-30T01:52:51.449Z,0.10
2023-04-30T01:55:24.149Z,0.10
2023-04-30T01:58:01.683Z,0.10
2023-04-30T02:00:30.822Z,0.10
2023-04-30T02:02:58.526Z,0.10
2023-04-30T02:05:25.741Z,0.10
2023-04-30T02:07:53.172Z,0.10
2023-04-30T02:10:26.648Z,0.10
2023-04-30T02:12:54.021Z,0.10
2023-04-30T02:15:21.055Z,0.10
2023-04-30T02:17:48.178Z,0.10
2023-04-30T02:20:14.920Z,0.10
2023-04-30T02:22:42.892Z,0.10
2023-04-30T02:25:11.551Z,0.10
2023-04-30T02:27:38.685Z,0.10
2023-04-30T02:30:06.684Z,0.10
2023-04-30T02:32:33.548Z,0.10
2023-04-30T02:35:00.275Z,0.20
2023-04-30T02:37:27.230Z,0.10
2023-04-30T02:39:54.781Z,0.10
2023-04-30T02:42:21.822Z,0.10
2023-04-30T02:44:48.564Z,0.10
2023-04-30T02:47:15.329Z,0.10
2023-04-30T02:49:42.107Z,0.10
2023-04-30T02:52:10.204Z,0.10
2023-04-30T02:54:37.345Z,0.10
2023-04-30T02:57:04.093Z,0.10
2023-04-30T02:59:31.017Z,0.10
2023-04-30T03:01:57.869Z,0.10
2023-04-30T03:04:24.652Z,0.10
2023-04-30T03:06:51.435Z,0.10
2023-04-30T03:09:18.350Z,0.10
2023-04-30T03:11:45.085Z,0.10
2023-04-30T03:14:11.726Z,0.10
2023-04-30T03:16:38.463Z,0.10
2023-04-30T03:19:05.210Z,0.10
2023-04-30T03:21:32.752Z,0.10
2023-04-30T03:23:59.723Z,0.10
2023-04-30T03:26:26.603Z,0.10
2023-04-30T03:28:55.294Z,0.10
2023-04-30T03:31:22.047Z,0.10
2023-04-30T03:33:48.948Z,0.10
2023-04-30T03:36:16.012Z,0.10
2023-04-30T03:38:43.091Z,0.10
2023-04-30T03:41:09.905Z,0.10
2023-04-30T03:43:38.077Z,0.10
2023-04-30T03:46:05.031Z,0.20
2023-04-30T03:48:32.040Z,0.10
2023-04-30T03:50:58.710Z,0.10
2023-04-30T03:53:26.846Z,0.20
2023-04-30T03:55:54.979Z,0.20
2023-04-30T03:58:22.452Z,0.10
2023-04-30T04:00:49.899Z,0.10
2023-04-30T04:03:17.058Z,0.10
2023-04-30T04:05:44.548Z,0.15
2023-04-30T04:08:11.833Z,0.10
2023-04-30T04:10:39.972Z,0.20
2023-04-30T04:13:07.295Z,0.10
2023-04-30T04:15:34.862Z,0.17
2023-04-30T04:18:02.208Z,0.10
2023-04-30T04:20:30.241Z,0.10
2023-04-30T04:22:57.393Z,0.10
2023-04-30T04:25:25.413Z,0.13
2023-04-30T04:27:52.786Z,0.20
2023-04-30T04:30:19.710Z,0.20
2023-04-30T04:32:49.470Z,0.20
2023-04-30T04:35:19.028Z,0.20
2023-04-30T04:37:45.847Z,0.10
2023-04-30T04:40:12.896Z,0.10
2023-04-30T04:42:40.255Z,0.10
2023-04-30T04:45:08.577Z,0.20
2023-04-30T04:47:35.876Z,0.10
2023-04-30T04:50:02.813Z,0.10
2023-04-30T04:52:29.925Z,0.10
2023-04-30T04:54:56.609Z,0.20
2023-04-30T04:57:23.333Z,0.17
2023-04-30T04:59:50.142Z,0.10
2023-04-30T05:02:16.900Z,0.10
2023-04-30T05:04:43.703Z,0.10
2023-04-30T05:07:10.760Z,0.10
2023-04-30T05:09:37.553Z,0.10
2023-04-30T05:12:04.482Z,0.10
2023-04-30T05:14:31.207Z,0.20
2023-04-30T05:16:57.890Z,0.10
2023-04-30T05:19:24.712Z,0.10
2023-04-30T05:21:51.514Z,0.10
2023-04-30T05:24:18.171Z,0.10
2023-04-30T05:26:44.876Z,0.10
2023-04-30T05:29:12.268Z,0.20
2023-04-30T05:31:39.088Z,0.20
2023-04-30T05:34:05.942Z,0.10
2023-04-30T05:36:32.885Z,0.20
2023-04-30T05:38:59.730Z,0.10
2023-04-30T05:41:26.588Z,0.10
2023-04-30T05:43:53.284Z,0.10
2023-04-30T05:46:20.123Z,0.20
2023-04-30T05:48:46.977Z,0.10
2023-04-30T05:51:13.988Z,0.10
2023-04-30T05:53:40.629Z,0.20
2023-04-30T05:56:07.581Z,0.10
2023-04-30T05:58:34.862Z,0.10
2023-04-30T06:01:01.783Z,0.10
2023-04-30T06:03:28.563Z,0.10
2023-04-30T06:05:55.429Z,0.10
2023-04-30T06:08:22.387Z,0.10
2023-04-30T06:10:49.428Z,0.10
2023-04-30T06:13:16.708Z,0.10
2023-04-30T06:15:43.748Z,0.10
2023-04-30T06:18:12.659Z,0.10
2023-04-30T06:20:39.386Z,0.10
2023-04-30T06:23:06.558Z,0.10
2023-04-30T06:25:33.224Z,0.10
2023-04-30T06:28:00.159Z,0.10
2023-04-30T06:30:27.269Z,0.10
2023-04-30T06:32:54.300Z,0.10
2023-04-30T06:35:21.164Z,0.10
2023-04-30T06:37:47.865Z,0.10
2023-04-30T06:40:14.615Z,0.10
2023-04-30T06:42:41.513Z,0.10
2023-04-30T06:45:08.938Z,0.10
2023-04-30T06:47:38.149Z,0.10
2023-04-30T06:50:05.723Z,0.10
2023-04-30T06:52:32.424Z,0.00
2023-04-30T06:54:59.112Z,0.10
2023-04-30T06:57:25.991Z,0.10
2023-04-30T06:59:53.045Z,0.10
2023-04-30T07:02:21.948Z,0.00
2023-04-30T07:04:49.627Z,0.00
2023-04-30T07:07:16.325Z,0.00
2023-04-30T07:09:43.085Z,0.00
2023-04-30T07:12:11.427Z,0.00
2023-04-30T07:14:38.111Z,0.00
2023-04-30T07:17:04.925Z,0.00
2023-04-30T07:19:32.781Z,0.00
2023-04-30T07:21:59.565Z,0.00
2023-04-30T07:24:26.365Z,0.00
2023-04-30T07:26:53.105Z,0.00
2023-04-30T07:29:19.873Z,0.00
2023-04-30T07:31:46.596Z,0.00
2023-04-30T07:34:13.518Z,0.00
2023-04-30T07:36:40.336Z,0.00
2023-04-30T07:39:08.203Z,0.00
2023-04-30T07:41:35.075Z,0.00
2023-04-30T07:44:01.732Z,0.00
2023-04-30T07:46:28.637Z,0.00
2023-04-30T07:48:55.599Z,0.00
2023-04-30T07:51:22.537Z,0.00
2023-04-30T07:53:49.312Z,0.00
2023-04-30T07:56:16.234Z,0.00
2023-04-30T07:58:43.015Z,0.00
2023-04-30T08:01:09.681Z,0.00
2023-04-30T08:03:36.976Z,0.00
2023-04-30T08:06:06.097Z,0.00
2023-04-30T08:08:33.017Z,0.00
2023-04-30T08:10:59.777Z,0.00
2023-04-30T08:13:26.572Z,0.00
2023-04-30T08:15:53.283Z,0.00
2023-04-30T08:18:19.969Z,0.00
2023-04-30T08:20:46.698Z,0.00
2023-04-30T08:23:13.431Z,0.00
2023-04-30T08:25:40.263Z,0.00
2023-04-30T08:28:07.020Z,0.00
2023-04-30T08:30:33.729Z,0.00
2023-04-30T08:33:00.553Z,0.00
2023-04-30T08:35:27.771Z,0.00
2023-04-30T08:37:54.530Z,0.00
2023-04-30T08:40:23.446Z,0.00
2023-04-30T08:43:05.529Z,0.10
2023-04-30T08:45:33.453Z,0.00
2023-04-30T08:48:01.146Z,0.00
2023-04-30T08:50:28.441Z,0.00
2023-04-30T08:52:55.283Z,0.00
2023-04-30T08:55:22.088Z,0.00
2023-04-30T08:57:48.830Z,0.00
2023-04-30T09:00:15.701Z,0.00
2023-04-30T09:02:43.092Z,0.00
2023-04-30T09:05:14.733Z,0.00
2023-04-30T09:07:52.001Z,0.00
2023-04-30T09:10:28.097Z,0.00
2023-04-30T09:13:07.205Z,0.00
2023-04-30T09:15:34.909Z,0.00
2023-04-30T09:18:07.878Z,0.00
2023-04-30T09:20:34.979Z,0.00
2023-04-30T09:23:09.993Z,0.00
2023-04-30T09:25:42.031Z,0.00
2023-04-30T09:28:13.439Z,0.00
2023-04-30T09:30:41.787Z,0.00
2023-04-30T09:33:11.637Z,0.00
2023-04-30T09:35:43.888Z,0.00
2023-04-30T09:38:30.927Z,0.00
2023-04-30T09:41:02.021Z,0.00
2023-04-30T09:43:30.162Z,0.00
2023-04-30T09:45:59.549Z,0.00
2023-04-30T09:48:28.520Z,0.00
2023-04-30T09:50:55.769Z,0.00
2023-04-30T09:53:23.900Z,0.00
2023-04-30T09:55:51.590Z,0.00
2023-04-30T09:58:19.633Z,0.00
2023-04-30T10:00:49.634Z,0.05
2023-04-30T10:03:17.290Z,0.00
2023-04-30T10:05:47.883Z,0.00
2023-04-30T10:08:40.372Z,0.00
2023-04-30T10:11:08.845Z,0.00
2023-04-30T10:13:43.243Z,0.00
2023-04-30T10:16:27.435Z,0.00
2023-04-30T10:18:55.652Z,0.00
2023-04-30T10:21:24.922Z,0.00
2023-04-30T10:23:52.979Z,0.00
2023-04-30T10:26:20.396Z,0.00
2023-04-30T10:28:50.569Z,0.00
2023-04-30T10:31:19.446Z,0.00
2023-04-30T10:34:01.917Z,0.00
2023-04-30T10:36:39.595Z,0.00
2023-04-30T10:39:07.130Z,0.00
2023-04-30T10:41:34.045Z,0.00
2023-04-30T10:44:02.714Z,0.00
2023-04-30T10:46:29.674Z,0.00
2023-04-30T10:48:56.526Z,0.00
2023-04-30T10:51:23.488Z,0.00
2023-04-30T10:53:55.898Z,0.00
2023-04-30T10:56:32.825Z,0.00
2023-04-30T10:59:03.396Z,0.00
2023-04-30T11:01:31.254Z,0.00
2023-04-30T11:04:09.313Z,0.00
2023-04-30T11:06:54.307Z,0.00
2023-04-30T11:09:36.712Z,0.00
2023-04-30T11:12:20.194Z,0.00
2023-04-30T11:14:47.493Z,0.00
2023-04-30T11:17:23.225Z,0.00
2023-04-30T11:19:54.742Z,0.00
2023-04-30T11:22:24.567Z,0.00
2023-04-30T11:25:01.142Z,0.00
2023-04-30T11:27:29.777Z,0.00
2023-04-30T11:29:58.260Z,0.00
2023-04-30T11:32:27.743Z,0.00
2023-04-30T11:34:55.316Z,0.00
2023-04-30T11:37:45.116Z,0.00
2023-04-30T11:40:14.733Z,0.00
2023-04-30T11:42:45.995Z,0.00
2023-04-30T11:45:18.062Z,0.00
2023-04-30T11:47:45.730Z,0.00
2023-04-30T11:50:19.787Z,0.00
2023-04-30T11:52:50.959Z,0.00
2023-04-30T11:55:20.973Z,0.00
2023-04-30T11:57:49.709Z,0.00
2023-04-30T12:00:18.402Z,0.00
2023-04-30T12:02:50.023Z,0.00
2023-04-30T12:05:21.901Z,0.00
2023-04-30T12:07:54.936Z,0.00
2023-04-30T12:10:22.482Z,0.00
2023-04-30T12:12:52.517Z,0.00
2023-04-30T12:15:23.501Z,0.00
2023-04-30T12:17:50.491Z,0.00
2023-04-30T12:20:17.237Z,0.00
2023-04-30T12:22:44.618Z,0.00
2023-04-30T12:25:16.106Z,0.00
2023-04-30T12:27:46.177Z,0.00
2023-04-30T12:30:13.836Z,0.00
2023-04-30T12:32:42.970Z,0.00
2023-04-30T12:35:15.616Z,0.00
2023-04-30T12:37:47.315Z,0.00
2023-04-30T12:40:14.602Z,0.00
2023-04-30T12:42:44.943Z,0.00
2023-04-30T12:45:11.971Z,0.00
2023-04-30T12:47:42.157Z,0.00
2023-04-30T12:50:12.692Z,0.00
2023-04-30T12:52:41.160Z,0.00
2023-04-30T12:55:18.728Z,0.00
2023-04-30T12:58:10.917Z,0.00
2023-04-30T13:00:51.181Z,0.00
2023-04-30T13:03:20.973Z,0.00
2023-04-30T13:05:51.210Z,0.00
2023-04-30T13:08:19.833Z,0.00
2023-04-30T13:10:47.451Z,0.00
2023-04-30T13:13:15.905Z,0.00
2023-04-30T13:15:43.886Z,0.00
2023-04-30T13:18:10.839Z,0.00
2023-04-30T13:20:38.816Z,0.00
2023-04-30T13:23:08.435Z,0.00
2023-04-30T13:25:36.443Z,0.00
2023-04-30T13:28:03.303Z,0.00
2023-04-30T13:30:30.117Z,0.00
2023-04-30T13:32:56.952Z,0.00
2023-04-30T13:35:23.728Z,0.00
2023-04-30T13:37:52.565Z,0.00
2023-04-30T13:40:20.372Z,0.00
2023-04-30T13:42:48.335Z,0.00
2023-04-30T13:45:15.195Z,0.00
2023-04-30T13:47:41.957Z,0.00
2023-04-30T13:50:09.780Z,0.00
2023-04-30T13:52:36.500Z,0.00
2023-04-30T13:55:04.889Z,0.00
2023-04-30T13:57:33.499Z,0.00
2023-04-30T14:00:00.555Z,0.00
2023-04-30T14:02:30.478Z,0.00
2023-04-30T14:05:05.745Z,0.00
2023-04-30T14:07:34.037Z,0.00
2023-04-30T14:10:00.973Z,0.00
2023-04-30T14:12:27.761Z,0.00
2023-04-30T14:14:54.483Z,0.00
2023-04-30T14:17:21.364Z,0.00
2023-04-30T14:19:48.043Z,0.00
2023-04-30T14:22:14.910Z,0.00
2023-04-30T14:24:41.562Z,0.00
2023-04-30T14:27:08.421Z,0.00
2023-04-30T14:29:35.278Z,0.00
2023-04-30T14:32:02.215Z,0.00
2023-04-30T14:34:29.049Z,0.00
2023-04-30T14:36:59.486Z,0.00
2023-04-30T14:39:26.974Z,0.00
2023-04-30T14:41:54.308Z,0.00
2023-04-30T14:44:24.045Z,0.00
2023-04-30T14:46:51.164Z,0.00
2023-04-30T14:49:17.942Z,0.00
2023-04-30T14:51:44.645Z,0.00
2023-04-30T14:54:11.773Z,0.00
2023-04-30T14:56:39.266Z,0.00
2023-04-30T14:59:06.089Z,0.00
2023-04-30T15:01:33.194Z,0.00
2023-04-30T15:04:00.495Z,0.00
2023-04-30T15:06:27.751Z,0.00
2023-04-30T15:08:54.665Z,0.00
2023-04-30T15:11:21.881Z,0.00
2023-04-30T15:13:48.668Z,0.00
2023-04-30T15:16:15.599Z,0.00
2023-04-30T15:18:43.629Z,0.00
2023-04-30T15:21:10.851Z,0.00
2023-04-30T15:23:37.849Z,0.00
2023-04-30T15:26:04.653Z,0.00
2023-04-30T15:28:32.885Z,0.00
2023-04-30T15:31:01.334Z,0.00
2023-04-30T15:33:29.067Z,0.00
2023-04-30T15:35:55.944Z,0.00
2023-04-30T15:38:22.671Z,0.00
2023-04-30T15:40:49.432Z,0.00
2023-04-30T15:43:16.652Z,0.00
2023-04-30T15:45:46.054Z,0.00
2023-04-30T15:48:12.715Z,0.00
2023-04-30T15:50:39.399Z,0.00
2023-04-30T15:53:06.266Z,0.00
2023-04-30T15:55:33.374Z,0.00
2023-04-30T15:58:00.160Z,0.00
2023-04-30T16:00:27.333Z,0.00
2023-04-30T16:02:54.784Z,0.00
2023-04-30T16:05:21.596Z,0.00
2023-04-30T16:07:48.291Z,0.00
2023-04-30T16:10:15.121Z,0.00
2023-04-30T16:12:42.071Z,0.00
2023-04-30T16:15:10.221Z,0.00
2023-04-30T16:17:39.787Z,0.00
2023-04-30T16:20:08.522Z,0.00
2023-04-30T16:22:35.296Z,0.00
2023-04-30T16:25:02.016Z,0.00
2023-04-30T16:27:28.736Z,0.00
2023-04-30T16:29:55.707Z,0.00
2023-04-30T16:32:22.893Z,0.00
2023-04-30T16:34:49.696Z,0.00
2023-04-30T16:37:16.491Z,0.00
2023-04-30T16:39:43.249Z,0.00
2023-04-30T16:42:09.993Z,0.00
2023-04-30T16:44:37.304Z,0.00
2023-04-30T16:47:04.488Z,0.00
2023-04-30T16:49:32.200Z,0.00
2023-04-30T16:51:59.226Z,0.00
2023-04-30T16:54:26.205Z,0.00
2023-04-30T16:56:52.890Z,0.00
2023-04-30T16:59:19.675Z,0.00
2023-04-30T17:01:47.110Z,0.00
2023-04-30T17:04:14.381Z,0.00
2023-04-30T17:06:41.665Z,0.00
2023-04-30T17:09:09.239Z,0.00
2023-04-30T17:11:35.983Z,0.00
2023-04-30T17:14:02.641Z,0.00
2023-04-30T17:16:29.399Z,0.00
2023-04-30T17:18:56.177Z,0.00
2023-04-30T17:21:22.994Z,0.00
2023-04-30T17:23:49.738Z,0.00
2023-04-30T17:26:16.408Z,0.00
2023-04-30T17:28:43.164Z,0.00
2023-04-30T17:31:09.941Z,0.00
2023-04-30T17:33:36.905Z,0.00
2023-04-30T17:36:04.685Z,0.00
2023-04-30T17:38:31.393Z,0.00
2023-04-30T17:40:58.120Z,0.00
2023-04-30T17:43:25.342Z,0.00
2023-04-30T17:45:53.819Z,0.00
2023-04-30T17:48:20.996Z,0.00
2023-04-30T17:50:47.934Z,0.00
2023-04-30T17:53:14.635Z,0.00
2023-04-30T17:55:41.688Z,0.00
2023-04-30T17:58:11.735Z,0.00
2023-04-30T18:00:40.535Z,0.00
2023-04-30T18:03:07.597Z,0.00
2023-04-30T18:05:35.564Z,0.00
2023-04-30T18:08:02.906Z,0.00
2023-04-30T18:10:29.586Z,0.00
2023-04-30T18:12:59.039Z,0.00
2023-04-30T18:15:29.127Z,0.10
2023-04-30T18:17:56.078Z,0.00
2023-04-30T18:20:23.014Z,0.00
2023-04-30T18:22:54.684Z,0.00
2023-04-30T18:25:23.165Z,0.00
2023-04-30T18:27:49.952Z,0.00
2023-04-30T18:30:16.894Z,0.00
2023-04-30T18:32:44.787Z,0.00
2023-04-30T18:35:11.602Z,0.00
2023-04-30T18:37:38.282Z,0.00
2023-04-30T18:40:05.471Z,0.00
2023-04-30T18:42:33.576Z,0.00
2023-04-30T18:45:01.237Z,0.00
2023-04-30T18:47:27.943Z,0.00
2023-04-30T18:49:55.006Z,0.00
2023-04-30T18:52:22.952Z,0.00
2023-04-30T18:54:49.844Z,0.00
2023-04-30T18:57:18.432Z,0.00
2023-04-30T18:59:45.174Z,0.00
2023-04-30T19:02:11.962Z,0.00
2023-04-30T19:04:38.682Z,0.10
2023-04-30T19:07:05.370Z,0.00
2023-04-30T19:09:37.127Z,0.00
2023-04-30T19:12:03.999Z,0.00
2023-04-30T19:14:31.303Z,0.00
2023-04-30T19:16:58.177Z,0.00
2023-04-30T19:19:24.912Z,0.00
2023-04-30T19:21:51.667Z,0.08
2023-04-30T19:24:18.418Z,0.00
2023-04-30T19:26:45.267Z,0.00
2023-04-30T19:29:11.992Z,0.00
2023-04-30T19:31:38.886Z,0.00
2023-04-30T19:34:05.739Z,0.00
2023-04-30T19:36:32.524Z,0.00
2023-04-30T19:38:59.306Z,0.00
2023-04-30T19:41:27.402Z,0.10
2023-04-30T19:43:54.140Z,0.00
2023-04-30T19:46:21.260Z,0.00
2023-04-30T19:48:48.042Z,0.00
2023-04-30T19:51:14.882Z,0.00
2023-04-30T19:53:41.766Z,0.00
2023-04-30T19:56:09.319Z,0.00
2023-04-30T19:58:36.109Z,0.00
2023-04-30T20:01:03.224Z,0.00
2023-04-30T20:03:29.952Z,0.00
2023-04-30T20:05:57.106Z,0.10
2023-04-30T20:08:24.038Z,0.00
2023-04-30T20:10:50.906Z,0.00
2023-04-30T20:13:17.990Z,0.10
2023-04-30T20:15:44.891Z,0.00
2023-04-30T20:18:12.930Z,0.00
2023-04-30T20:20:39.623Z,0.10
2023-04-30T20:23:18.534Z,0.00
2023-04-30T20:25:45.925Z,0.03
2023-04-30T20:28:13.613Z,0.10
2023-04-30T20:30:43.064Z,0.03
2023-04-30T20:33:11.170Z,0.00
2023-04-30T20:35:42.193Z,0.00
2023-04-30T20:38:09.434Z,0.10
2023-04-30T20:40:40.183Z,0.10
2023-04-30T20:43:08.753Z,0.10
2023-04-30T20:45:35.518Z,0.00
2023-04-30T20:48:02.485Z,0.10
2023-04-30T20:50:29.364Z,0.00
2023-04-30T20:52:56.009Z,0.10
2023-04-30T20:55:22.805Z,0.10
2023-04-30T20:57:49.750Z,0.00
2023-04-30T21:00:16.504Z,0.10
2023-04-30T21:02:43.257Z,0.10
2023-04-30T21:05:10.422Z,0.00
2023-04-30T21:07:37.277Z,0.10
2023-04-30T21:10:08.560Z,0.10
2023-04-30T21:12:35.746Z,0.00
2023-04-30T21:15:02.748Z,0.10
2023-04-30T21:17:29.480Z,0.05
2023-04-30T21:19:57.301Z,0.10
2023-04-30T21:22:24.785Z,0.00
2023-04-30T21:24:54.425Z,0.10
2023-04-30T21:27:21.830Z,0.10
2023-04-30T21:29:48.661Z,0.00
2023-04-30T21:32:15.436Z,0.10
2023-04-30T21:34:42.240Z,0.10
2023-04-30T21:37:09.031Z,0.00
2023-04-30T21:39:35.845Z,0.10
2023-04-30T21:42:04.680Z,0.10
2023-04-30T21:44:33.042Z,0.10
2023-04-30T21:47:00.207Z,0.00
2023-04-30T21:49:27.243Z,0.10
2023-04-30T21:51:54.102Z,0.10
2023-04-30T21:54:20.885Z,0.10
2023-04-30T21:56:47.762Z,0.10
2023-04-30T21:59:14.473Z,0.10
2023-04-30T22:01:41.379Z,0.00
2023-04-30T22:04:08.880Z,0.10
2023-04-30T22:06:35.987Z,0.10
2023-04-30T22:09:03.013Z,0.10
2023-04-30T22:11:29.818Z,0.10
2023-04-30T22:13:56.594Z,0.10
2023-04-30T22:16:23.341Z,0.10
2023-04-30T22:18:50.225Z,0.10
2023-04-30T22:21:16.927Z,0.10
2023-04-30T22:23:43.610Z,0.10
2023-04-30T22:26:11.510Z,0.03
2023-04-30T22:28:38.541Z,0.10
2023-04-30T22:31:05.395Z,0.10
2023-04-30T22:33:36.600Z,0.10
2023-04-30T22:36:06.703Z,0.00
2023-04-30T22:38:33.612Z,0.10
2023-04-30T22:41:00.806Z,0.10
2023-04-30T22:43:30.351Z,0.10
2023-04-30T22:45:58.912Z,0.10
2023-04-30T22:48:27.811Z,0.00
2023-04-30T22:50:55.686Z,0.10
2023-04-30T22:53:22.638Z,0.10
2023-04-30T22:55:49.862Z,0.10
2023-04-30T22:58:17.323Z,0.10
2023-04-30T23:00:44.083Z,0.10
2023-04-30T23:03:11.517Z,0.10
2023-04-30T23:05:38.322Z,0.10
2023-04-30T23:08:05.056Z,0.10
2023-04-30T23:10:31.729Z,0.10
2023-04-30T23:12:58.988Z,0.10
2023-04-30T23:15:26.379Z,0.10
2023-04-30T23:17:54.713Z,0.20
2023-04-30T23:20:22.763Z,0.10
2023-04-30T23:22:49.752Z,0.10
2023-04-30T23:25:17.172Z,0.10
2023-04-30T23:27:45.109Z,0.10
2023-04-30T23:30:12.137Z,0.10
2023-04-30T23:32:39.096Z,0.10
2023-04-30T23:35:07.960Z,0.10
2023-04-30T23:37:35.703Z,0.10
2023-04-30T23:40:02.524Z,0.10
2023-04-30T23:42:29.204Z,0.10
2023-04-30T23:44:55.874Z,0.10
2023-04-30T23:47:22.730Z,0.10
2023-04-30T23:49:49.491Z,0.10
2023-04-30T23:52:16.725Z,0.10
2023-04-30T23:54:43.533Z,0.10
2023-04-30T23:57:11.447Z,0.10
2023-04-30T23:59:39.200Z,0.10
